sensor_id;sensor_type;location;lat;lon;timestamp;P1;durP1;ratioP1;P2;durP2;ratioP2
7013;SDS011;3547;50.774;12.918;2023-08-20T00:02:07;8.45;;;4.72;;
7013;SDS011;3547;50.774;12.918;2023-08-20T00:12:26;5.07;;;4.53;;
7013;SDS011;3547;50.774;12.918;2023-08-20T01:47:56;6.63;;;4.15;;
7013;SDS011;3547;50.774;12.918;2023-08-20T01:50:26;5.93;;;4.50;;
7013;SDS011;3547;50.774;12.918;2023-08-20T01:52:53;5.53;;;4.22;;
7013;SDS011;3547;50.774;12.918;2023-08-20T01:55:19;5.82;;;4.90;;
7013;SDS011;3547;50.774;12.918;2023-08-20T01:57:45;5.65;;;4.63;;
7013;SDS011;3547;50.774;12.918;2023-08-20T02:00:12;7.32;;;4.15;;
7013;SDS011;3547;50.774;12.918;2023-08-20T02:02:39;5.10;;;4.60;;
7013;SDS011;3547;50.774;12.918;2023-08-20T02:05:11;5.10;;;4.07;;
7013;SDS011;3547;50.774;12.918;2023-08-20T02:07:38;4.38;;;3.95;;
7013;SDS011;3547;50.774;12.918;2023-08-20T02:10:04;6.65;;;4.55;;
7013;SDS011;3547;50.774;12.918;2023-08-20T02:12:31;7.78;;;4.13;;
7013;SDS011;3547;50.774;12.918;2023-08-20T02:15:03;4.20;;;3.80;;
7013;SDS011;3547;50.774;12.918;2023-08-20T02:17:30;7.07;;;4.40;;
7013;SDS011;3547;50.774;12.918;2023-08-20T02:20:11;5.95;;;4.10;;
7013;SDS011;3547;50.774;12.918;2023-08-20T02:22:41;5.72;;;4.00;;
7013;SDS011;3547;50.774;12.918;2023-08-20T02:25:11;9.18;;;4.78;;
7013;SDS011;3547;50.774;12.918;2023-08-20T02:27:37;5.45;;;4.88;;
7013;SDS011;3547;50.774;12.918;2023-08-20T02:30:03;8.85;;;5.53;;
7013;SDS011;3547;50.774;12.918;2023-08-20T02:32:30;7.30;;;5.70;;
7013;SDS011;3547;50.774;12.918;2023-08-20T02:34:58;6.07;;;5.30;;
7013;SDS011;3547;50.774;12.918;2023-08-20T02:37:25;6.80;;;5.20;;
7013;SDS011;3547;50.774;12.918;2023-08-20T02:39:54;6.93;;;5.63;;
7013;SDS011;3547;50.774;12.918;2023-08-20T02:42:21;6.43;;;5.13;;
7013;SDS011;3547;50.774;12.918;2023-08-20T02:44:51;6.85;;;4.63;;
7013;SDS011;3547;50.774;12.918;2023-08-20T02:47:17;7.10;;;4.85;;
7013;SDS011;3547;50.774;12.918;2023-08-20T02:49:43;6.68;;;4.47;;
7013;SDS011;3547;50.774;12.918;2023-08-20T02:52:09;8.55;;;5.18;;
7013;SDS011;3547;50.774;12.918;2023-08-20T02:54:36;7.30;;;4.47;;
7013;SDS011;3547;50.774;12.918;2023-08-20T02:57:03;7.50;;;5.55;;
7013;SDS011;3547;50.774;12.918;2023-08-20T02:59:29;7.22;;;4.63;;
7013;SDS011;3547;50.774;12.918;2023-08-20T03:01:55;6.85;;;4.60;;
7013;SDS011;3547;50.774;12.918;2023-08-20T03:04:25;11.38;;;4.90;;
7013;SDS011;3547;50.774;12.918;2023-08-20T03:06:51;7.13;;;4.93;;
7013;SDS011;3547;50.774;12.918;2023-08-20T03:09:17;9.73;;;5.53;;
7013;SDS011;3547;50.774;12.918;2023-08-20T03:11:43;7.93;;;5.45;;
7013;SDS011;3547;50.774;12.918;2023-08-20T03:14:10;5.72;;;4.85;;
7013;SDS011;3547;50.774;12.918;2023-08-20T03:16:36;7.28;;;4.70;;
7013;SDS011;3547;50.774;12.918;2023-08-20T03:22:26;7.18;;;4.60;;
7013;SDS011;3547;50.774;12.918;2023-08-20T03:24:53;7.03;;;5.18;;
7013;SDS011;3547;50.774;12.918;2023-08-20T03:27:19;8.10;;;5.22;;
7013;SDS011;3547;50.774;12.918;2023-08-20T03:29:46;8.40;;;5.85;;
7013;SDS011;3547;50.774;12.918;2023-08-20T03:32:12;9.48;;;5.15;;
7013;SDS011;3547;50.774;12.918;2023-08-20T03:34:39;5.20;;;4.78;;
7013;SDS011;3547;50.774;12.918;2023-08-20T03:37:05;7.88;;;5.38;;
7013;SDS011;3547;50.774;12.918;2023-08-20T03:39:31;9.32;;;4.57;;
7013;SDS011;3547;50.774;12.918;2023-08-20T03:41:58;6.68;;;5.00;;
7013;SDS011;3547;50.774;12.918;2023-08-20T03:44:24;5.38;;;4.32;;
7013;SDS011;3547;50.774;12.918;2023-08-20T03:46:51;12.05;;;4.28;;
7013;SDS011;3547;50.774;12.918;2023-08-20T03:49:17;6.10;;;4.43;;
7013;SDS011;3547;50.774;12.918;2023-08-20T03:51:44;6.00;;;4.78;;
7013;SDS011;3547;50.774;12.918;2023-08-20T03:54:10;7.35;;;5.15;;
7013;SDS011;3547;50.774;12.918;2023-08-20T03:56:37;5.82;;;4.90;;
7013;SDS011;3547;50.774;12.918;2023-08-20T03:59:03;9.10;;;5.22;;
7013;SDS011;3547;50.774;12.918;2023-08-20T04:01:29;7.97;;;5.47;;
7013;SDS011;3547;50.774;12.918;2023-08-20T04:03:55;7.93;;;5.70;;
7013;SDS011;3547;50.774;12.918;2023-08-20T04:06:22;7.22;;;5.80;;
7013;SDS011;3547;50.774;12.918;2023-08-20T04:08:48;6.57;;;5.13;;
7013;SDS011;3547;50.774;12.918;2023-08-20T04:11:14;6.53;;;5.47;;
7013;SDS011;3547;50.774;12.918;2023-08-20T04:13:41;6.38;;;5.15;;
7013;SDS011;3547;50.774;12.918;2023-08-20T04:16:09;8.93;;;5.53;;
7013;SDS011;3547;50.774;12.918;2023-08-20T04:18:36;6.10;;;5.50;;
7013;SDS011;3547;50.774;12.918;2023-08-20T04:21:02;8.88;;;4.65;;
7013;SDS011;3547;50.774;12.918;2023-08-20T04:23:28;5.57;;;4.70;;
7013;SDS011;3547;50.774;12.918;2023-08-20T04:25:54;10.43;;;4.90;;
7013;SDS011;3547;50.774;12.918;2023-08-20T04:28:21;5.60;;;4.75;;
7013;SDS011;3547;50.774;12.918;2023-08-20T04:30:53;8.85;;;4.90;;
7013;SDS011;3547;50.774;12.918;2023-08-20T04:33:20;9.48;;;4.47;;
7013;SDS011;3547;50.774;12.918;2023-08-20T04:35:48;8.32;;;4.50;;
7013;SDS011;3547;50.774;12.918;2023-08-20T04:38:16;6.03;;;4.82;;
7013;SDS011;3547;50.774;12.918;2023-08-20T04:40:45;5.78;;;5.10;;
7013;SDS011;3547;50.774;12.918;2023-08-20T04:43:13;5.45;;;4.53;;
7013;SDS011;3547;50.774;12.918;2023-08-20T04:45:40;8.98;;;4.95;;
7013;SDS011;3547;50.774;12.918;2023-08-20T04:48:07;7.20;;;5.85;;
7013;SDS011;3547;50.774;12.918;2023-08-20T04:50:33;10.10;;;5.50;;
7013;SDS011;3547;50.774;12.918;2023-08-20T04:53:00;7.85;;;5.07;;
7013;SDS011;3547;50.774;12.918;2023-08-20T04:55:27;7.35;;;5.13;;
7013;SDS011;3547;50.774;12.918;2023-08-20T04:57:54;7.30;;;4.88;;
7013;SDS011;3547;50.774;12.918;2023-08-20T05:00:23;8.63;;;5.53;;
7013;SDS011;3547;50.774;12.918;2023-08-20T05:02:54;7.72;;;5.35;;
7013;SDS011;3547;50.774;12.918;2023-08-20T05:05:21;7.85;;;4.97;;
7013;SDS011;3547;50.774;12.918;2023-08-20T05:07:51;8.65;;;5.45;;
7013;SDS011;3547;50.774;12.918;2023-08-20T05:10:17;7.18;;;5.68;;
7013;SDS011;3547;50.774;12.918;2023-08-20T05:12:44;7.95;;;5.78;;
7013;SDS011;3547;50.774;12.918;2023-08-20T05:15:10;7.60;;;6.43;;
7013;SDS011;3547;50.774;12.918;2023-08-20T05:17:50;10.90;;;5.70;;
7013;SDS011;3547;50.774;12.918;2023-08-20T05:20:19;7.63;;;6.13;;
7013;SDS011;3547;50.774;12.918;2023-08-20T05:22:46;6.32;;;5.35;;
7013;SDS011;3547;50.774;12.918;2023-08-20T05:25:14;6.00;;;5.28;;
7013;SDS011;3547;50.774;12.918;2023-08-20T05:27:53;7.32;;;5.93;;
7013;SDS011;3547;50.774;12.918;2023-08-20T05:30:22;7.13;;;5.97;;
7013;SDS011;3547;50.774;12.918;2023-08-20T05:32:48;6.47;;;4.75;;
7013;SDS011;3547;50.774;12.918;2023-08-20T05:35:14;9.02;;;6.50;;
7013;SDS011;3547;50.774;12.918;2023-08-20T05:37:42;7.22;;;5.57;;
7013;SDS011;3547;50.774;12.918;2023-08-20T05:40:12;9.38;;;6.55;;
7013;SDS011;3547;50.774;12.918;2023-08-20T05:42:38;7.43;;;5.43;;
7013;SDS011;3547;50.774;12.918;2023-08-20T05:45:05;7.05;;;5.72;;
7013;SDS011;3547;50.774;12.918;2023-08-20T05:47:35;6.15;;;5.55;;
7013;SDS011;3547;50.774;12.918;2023-08-20T05:50:20;9.25;;;6.03;;
7013;SDS011;3547;50.774;12.918;2023-08-20T05:52:50;8.80;;;6.10;;
7013;SDS011;3547;50.774;12.918;2023-08-20T05:55:20;7.85;;;6.20;;
7013;SDS011;3547;50.774;12.918;2023-08-20T05:57:47;10.05;;;6.72;;
7013;SDS011;3547;50.774;12.918;2023-08-20T06:00:13;13.07;;;7.00;;
7013;SDS011;3547;50.774;12.918;2023-08-20T06:02:41;8.60;;;6.18;;
7013;SDS011;3547;50.774;12.918;2023-08-20T06:05:08;12.02;;;7.25;;
7013;SDS011;3547;50.774;12.918;2023-08-20T06:07:39;13.20;;;6.97;;
7013;SDS011;3547;50.774;12.918;2023-08-20T06:10:07;8.63;;;5.95;;
7013;SDS011;3547;50.774;12.918;2023-08-20T06:12:36;6.40;;;5.78;;
7013;SDS011;3547;50.774;12.918;2023-08-20T06:17:41;8.63;;;5.80;;
7013;SDS011;3547;50.774;12.918;2023-08-20T06:20:08;6.82;;;6.05;;
7013;SDS011;3547;50.774;12.918;2023-08-20T06:44:02;11.77;;;4.68;;
7013;SDS011;3547;50.774;12.918;2023-08-20T07:08:16;6.50;;;4.97;;
7013;SDS011;3547;50.774;12.918;2023-08-20T07:10:54;6.72;;;5.15;;
7013;SDS011;3547;50.774;12.918;2023-08-20T07:13:29;8.35;;;5.20;;
7013;SDS011;3547;50.774;12.918;2023-08-20T07:15:59;7.22;;;4.68;;
7013;SDS011;3547;50.774;12.918;2023-08-20T07:18:35;6.55;;;4.82;;
7013;SDS011;3547;50.774;12.918;2023-08-20T07:21:10;5.65;;;4.07;;
7013;SDS011;3547;50.774;12.918;2023-08-20T07:51:26;5.20;;;4.50;;
7013;SDS011;3547;50.774;12.918;2023-08-20T07:53:58;11.38;;;4.72;;
7013;SDS011;3547;50.774;12.918;2023-08-20T07:56:26;5.38;;;4.72;;
7013;SDS011;3547;50.774;12.918;2023-08-20T07:58:52;6.18;;;4.55;;
7013;SDS011;3547;50.774;12.918;2023-08-20T08:01:18;4.60;;;4.05;;
7013;SDS011;3547;50.774;12.918;2023-08-20T08:03:45;7.68;;;4.57;;
7013;SDS011;3547;50.774;12.918;2023-08-20T08:06:11;6.95;;;5.40;;
7013;SDS011;3547;50.774;12.918;2023-08-20T08:08:37;6.32;;;5.22;;
7013;SDS011;3547;50.774;12.918;2023-08-20T08:11:07;5.50;;;4.90;;
7013;SDS011;3547;50.774;12.918;2023-08-20T08:13:33;5.40;;;4.90;;
7013;SDS011;3547;50.774;12.918;2023-08-20T08:15:59;6.65;;;4.38;;
7013;SDS011;3547;50.774;12.918;2023-08-20T08:18:26;5.45;;;4.70;;
7013;SDS011;3547;50.774;12.918;2023-08-20T08:20:52;6.60;;;4.45;;
7013;SDS011;3547;50.774;12.918;2023-08-20T08:23:18;5.15;;;4.55;;
7013;SDS011;3547;50.774;12.918;2023-08-20T08:25:44;5.63;;;4.85;;
7013;SDS011;3547;50.774;12.918;2023-08-20T08:28:10;6.63;;;4.63;;
7013;SDS011;3547;50.774;12.918;2023-08-20T08:30:40;6.82;;;5.22;;
7013;SDS011;3547;50.774;12.918;2023-08-20T08:33:06;5.60;;;4.63;;
7013;SDS011;3547;50.774;12.918;2023-08-20T08:35:33;4.57;;;4.18;;
7013;SDS011;3547;50.774;12.918;2023-08-20T08:37:59;5.68;;;5.18;;
7013;SDS011;3547;50.774;12.918;2023-08-20T08:40:27;5.97;;;4.68;;
7013;SDS011;3547;50.774;12.918;2023-08-20T08:42:55;5.03;;;4.38;;
7013;SDS011;3547;50.774;12.918;2023-08-20T08:45:21;5.28;;;4.70;;
7013;SDS011;3547;50.774;12.918;2023-08-20T08:47:48;6.00;;;4.85;;
7013;SDS011;3547;50.774;12.918;2023-08-20T08:50:15;6.40;;;5.00;;
7013;SDS011;3547;50.774;12.918;2023-08-20T08:52:41;8.48;;;5.80;;
7013;SDS011;3547;50.774;12.918;2023-08-20T08:55:10;6.90;;;4.70;;
7013;SDS011;3547;50.774;12.918;2023-08-20T08:57:37;5.80;;;5.20;;
7013;SDS011;3547;50.774;12.918;2023-08-20T09:00:04;13.18;;;5.60;;
7013;SDS011;3547;50.774;12.918;2023-08-20T09:02:33;8.80;;;5.40;;
7013;SDS011;3547;50.774;12.918;2023-08-20T09:05:04;6.32;;;5.47;;
7013;SDS011;3547;50.774;12.918;2023-08-20T09:07:32;5.95;;;5.32;;
7013;SDS011;3547;50.774;12.918;2023-08-20T09:09:59;7.28;;;5.85;;
7013;SDS011;3547;50.774;12.918;2023-08-20T09:12:29;6.10;;;5.50;;
7013;SDS011;3547;50.774;12.918;2023-08-20T09:15:00;6.40;;;5.80;;
7013;SDS011;3547;50.774;12.918;2023-08-20T09:17:28;8.98;;;5.70;;
7013;SDS011;3547;50.774;12.918;2023-08-20T09:19:55;6.50;;;5.85;;
7013;SDS011;3547;50.774;12.918;2023-08-20T09:22:26;6.22;;;5.47;;
7013;SDS011;3547;50.774;12.918;2023-08-20T09:24:56;5.32;;;4.82;;
7013;SDS011;3547;50.774;12.918;2023-08-20T09:27:23;6.28;;;5.32;;
7013;SDS011;3547;50.774;12.918;2023-08-20T09:29:52;9.85;;;5.78;;
7013;SDS011;3547;50.774;12.918;2023-08-20T09:32:43;8.45;;;6.57;;
7013;SDS011;3547;50.774;12.918;2023-08-20T09:35:17;7.85;;;6.57;;
7013;SDS011;3547;50.774;12.918;2023-08-20T09:37:45;7.70;;;5.53;;
7013;SDS011;3547;50.774;12.918;2023-08-20T09:40:11;10.45;;;5.97;;
7013;SDS011;3547;50.774;12.918;2023-08-20T09:42:41;7.20;;;5.97;;
7013;SDS011;3547;50.774;12.918;2023-08-20T09:45:08;9.57;;;6.60;;
7013;SDS011;3547;50.774;12.918;2023-08-20T09:47:38;7.70;;;5.60;;
7013;SDS011;3547;50.774;12.918;2023-08-20T09:50:08;6.80;;;5.75;;
7013;SDS011;3547;50.774;12.918;2023-08-20T09:52:42;6.70;;;6.03;;
7013;SDS011;3547;50.774;12.918;2023-08-20T09:55:17;6.38;;;5.78;;
7013;SDS011;3547;50.774;12.918;2023-08-20T09:57:48;10.15;;;6.63;;
7013;SDS011;3547;50.774;12.918;2023-08-20T10:04:17;7.72;;;5.93;;
7013;SDS011;3547;50.774;12.918;2023-08-20T10:06:44;6.60;;;5.80;;
7013;SDS011;3547;50.774;12.918;2023-08-20T10:09:10;8.95;;;6.30;;
7013;SDS011;3547;50.774;12.918;2023-08-20T10:11:40;7.90;;;5.85;;
7013;SDS011;3547;50.774;12.918;2023-08-20T10:14:06;6.88;;;6.15;;
7013;SDS011;3547;50.774;12.918;2023-08-20T10:16:35;9.00;;;6.18;;
7013;SDS011;3547;50.774;12.918;2023-08-20T10:19:05;7.80;;;6.15;;
7013;SDS011;3547;50.774;12.918;2023-08-20T10:21:32;7.55;;;6.60;;
7013;SDS011;3547;50.774;12.918;2023-08-20T10:24:03;5.50;;;5.00;;
7013;SDS011;3547;50.774;12.918;2023-08-20T10:26:31;5.72;;;5.13;;
7013;SDS011;3547;50.774;12.918;2023-08-20T10:32:11;6.40;;;5.47;;
7013;SDS011;3547;50.774;12.918;2023-08-20T10:34:39;6.50;;;5.80;;
7013;SDS011;3547;50.774;12.918;2023-08-20T10:37:08;5.35;;;4.85;;
7013;SDS011;3547;50.774;12.918;2023-08-20T10:39:38;7.95;;;6.00;;
7013;SDS011;3547;50.774;12.918;2023-08-20T10:42:08;7.68;;;5.65;;
7013;SDS011;3547;50.774;12.918;2023-08-20T10:44:59;6.28;;;5.43;;
7013;SDS011;3547;50.774;12.918;2023-08-20T10:52:48;6.30;;;5.30;;
7013;SDS011;3547;50.774;12.918;2023-08-20T10:55:21;7.00;;;5.35;;
7013;SDS011;3547;50.774;12.918;2023-08-20T10:57:55;7.50;;;5.63;;
7013;SDS011;3547;50.774;12.918;2023-08-20T12:49:58;6.25;;;5.65;;
7013;SDS011;3547;50.774;12.918;2023-08-20T12:52:30;5.90;;;5.30;;
7013;SDS011;3547;50.774;12.918;2023-08-20T12:55:01;6.25;;;5.22;;
7013;SDS011;3547;50.774;12.918;2023-08-20T12:57:55;6.13;;;5.05;;
7013;SDS011;3547;50.774;12.918;2023-08-20T13:00:25;5.97;;;5.43;;
7013;SDS011;3547;50.774;12.918;2023-08-20T13:02:56;6.25;;;5.38;;
7013;SDS011;3547;50.774;12.918;2023-08-20T17:05:39;6.40;;;3.03;;
7013;SDS011;3547;50.774;12.918;2023-08-20T17:08:08;3.38;;;3.08;;
7013;SDS011;3547;50.774;12.918;2023-08-20T17:10:35;6.50;;;3.30;;
7013;SDS011;3547;50.774;12.918;2023-08-20T17:18:30;3.28;;;2.92;;
7013;SDS011;3547;50.774;12.918;2023-08-20T17:20:58;4.82;;;2.72;;
7013;SDS011;3547;50.774;12.918;2023-08-20T17:26:19;3.15;;;2.85;;
7013;SDS011;3547;50.774;12.918;2023-08-20T17:28:54;3.13;;;2.83;;
7013;SDS011;3547;50.774;12.918;2023-08-20T17:31:29;4.70;;;3.13;;
7013;SDS011;3547;50.774;12.918;2023-08-20T17:34:00;2.92;;;2.72;;
7013;SDS011;3547;50.774;12.918;2023-08-20T17:36:32;3.22;;;2.90;;
7013;SDS011;3547;50.774;12.918;2023-08-20T17:39:04;5.28;;;3.55;;
7013;SDS011;3547;50.774;12.918;2023-08-20T17:41:32;3.85;;;3.15;;
7013;SDS011;3547;50.774;12.918;2023-08-20T17:43:58;4.03;;;2.83;;
7013;SDS011;3547;50.774;12.918;2023-08-20T17:46:43;4.50;;;3.00;;
7013;SDS011;3547;50.774;12.918;2023-08-20T17:49:10;3.00;;;2.50;;
7013;SDS011;3547;50.774;12.918;2023-08-20T17:51:37;3.70;;;3.05;;
7013;SDS011;3547;50.774;12.918;2023-08-20T17:54:04;2.95;;;2.70;;
7013;SDS011;3547;50.774;12.918;2023-08-20T17:56:33;2.97;;;2.78;;
7013;SDS011;3547;50.774;12.918;2023-08-20T17:59:00;3.15;;;2.88;;
7013;SDS011;3547;50.774;12.918;2023-08-20T18:01:28;3.33;;;2.90;;
7013;SDS011;3547;50.774;12.918;2023-08-20T18:03:55;3.53;;;3.00;;
7013;SDS011;3547;50.774;12.918;2023-08-20T18:06:21;4.28;;;2.97;;
7013;SDS011;3547;50.774;12.918;2023-08-20T18:08:50;3.55;;;3.15;;
7013;SDS011;3547;50.774;12.918;2023-08-20T18:11:16;3.63;;;2.70;;
7013;SDS011;3547;50.774;12.918;2023-08-20T18:13:42;5.65;;;3.45;;
7013;SDS011;3547;50.774;12.918;2023-08-20T18:16:09;3.00;;;2.70;;
7013;SDS011;3547;50.774;12.918;2023-08-20T18:18:35;6.32;;;2.92;;
7013;SDS011;3547;50.774;12.918;2023-08-20T18:21:02;4.30;;;3.13;;
7013;SDS011;3547;50.774;12.918;2023-08-20T18:23:28;3.55;;;3.03;;
7013;SDS011;3547;50.774;12.918;2023-08-20T18:25:56;3.60;;;3.00;;
7013;SDS011;3547;50.774;12.918;2023-08-20T18:28:22;6.38;;;3.15;;
7013;SDS011;3547;50.774;12.918;2023-08-20T18:30:49;3.67;;;3.05;;
7013;SDS011;3547;50.774;12.918;2023-08-20T18:33:16;3.20;;;2.90;;
7013;SDS011;3547;50.774;12.918;2023-08-20T18:35:43;3.72;;;3.20;;
7013;SDS011;3547;50.774;12.918;2023-08-20T18:41:00;5.45;;;3.20;;
7013;SDS011;3547;50.774;12.918;2023-08-20T18:43:29;4.57;;;3.30;;
7013;SDS011;3547;50.774;12.918;2023-08-20T18:45:55;4.20;;;2.92;;
7013;SDS011;3547;50.774;12.918;2023-08-20T18:48:23;3.53;;;3.15;;
7013;SDS011;3547;50.774;12.918;2023-08-20T18:50:49;5.03;;;3.08;;
7013;SDS011;3547;50.774;12.918;2023-08-20T18:53:16;3.83;;;3.42;;
7013;SDS011;3547;50.774;12.918;2023-08-20T18:55:43;4.15;;;2.95;;
7013;SDS011;3547;50.774;12.918;2023-08-20T18:58:09;5.28;;;3.45;;
7013;SDS011;3547;50.774;12.918;2023-08-20T19:00:35;3.55;;;3.10;;
7013;SDS011;3547;50.774;12.918;2023-08-20T19:03:01;4.35;;;2.80;;
7013;SDS011;3547;50.774;12.918;2023-08-20T19:05:28;4.90;;;2.90;;
7013;SDS011;3547;50.774;12.918;2023-08-20T19:07:55;3.30;;;3.00;;
7013;SDS011;3547;50.774;12.918;2023-08-20T19:10:21;3.40;;;3.00;;
7013;SDS011;3547;50.774;12.918;2023-08-20T19:12:48;4.95;;;3.15;;
7013;SDS011;3547;50.774;12.918;2023-08-20T19:15:14;4.72;;;3.22;;
7013;SDS011;3547;50.774;12.918;2023-08-20T19:17:40;5.32;;;3.15;;
7013;SDS011;3547;50.774;12.918;2023-08-20T19:20:10;3.78;;;2.83;;
7013;SDS011;3547;50.774;12.918;2023-08-20T19:22:40;3.78;;;3.45;;
7013;SDS011;3547;50.774;12.918;2023-08-20T19:25:11;6.00;;;3.13;;
7013;SDS011;3547;50.774;12.918;2023-08-20T19:27:37;4.75;;;3.28;;
7013;SDS011;3547;50.774;12.918;2023-08-20T19:30:04;5.63;;;4.03;;
7013;SDS011;3547;50.774;12.918;2023-08-20T19:32:32;3.75;;;3.40;;
7013;SDS011;3547;50.774;12.918;2023-08-20T19:35:01;4.60;;;3.72;;
7013;SDS011;3547;50.774;12.918;2023-08-20T19:37:27;4.57;;;3.72;;
7013;SDS011;3547;50.774;12.918;2023-08-20T19:39:54;4.10;;;3.05;;
7013;SDS011;3547;50.774;12.918;2023-08-20T19:42:20;4.22;;;2.85;;
7013;SDS011;3547;50.774;12.918;2023-08-20T19:44:47;6.25;;;3.55;;
7013;SDS011;3547;50.774;12.918;2023-08-20T19:47:13;4.65;;;3.50;;
7013;SDS011;3547;50.774;12.918;2023-08-20T19:49:39;3.78;;;2.90;;
7013;SDS011;3547;50.774;12.918;2023-08-20T19:52:05;3.15;;;2.90;;
7013;SDS011;3547;50.774;12.918;2023-08-20T19:54:31;3.35;;;3.05;;
7013;SDS011;3547;50.774;12.918;2023-08-20T19:57:00;3.45;;;3.15;;
7013;SDS011;3547;50.774;12.918;2023-08-20T19:59:27;3.38;;;2.92;;
7013;SDS011;3547;50.774;12.918;2023-08-20T20:01:53;4.88;;;3.65;;
7013;SDS011;3547;50.774;12.918;2023-08-20T20:04:19;5.38;;;3.17;;
7013;SDS011;3547;50.774;12.918;2023-08-20T20:06:49;3.13;;;2.83;;
7013;SDS011;3547;50.774;12.918;2023-08-20T20:09:15;3.40;;;3.10;;
7013;SDS011;3547;50.774;12.918;2023-08-20T20:11:41;3.42;;;3.13;;
7013;SDS011;3547;50.774;12.918;2023-08-20T20:14:07;5.13;;;3.83;;
7013;SDS011;3547;50.774;12.918;2023-08-20T20:16:39;3.35;;;2.90;;
7013;SDS011;3547;50.774;12.918;2023-08-20T20:19:08;5.13;;;3.47;;
7013;SDS011;3547;50.774;12.918;2023-08-20T20:21:34;5.07;;;3.03;;
7013;SDS011;3547;50.774;12.918;2023-08-20T20:24:04;4.10;;;3.30;;
7013;SDS011;3547;50.774;12.918;2023-08-20T20:26:30;3.78;;;3.25;;
7013;SDS011;3547;50.774;12.918;2023-08-20T20:28:56;5.63;;;3.58;;
7013;SDS011;3547;50.774;12.918;2023-08-20T20:31:22;5.25;;;3.80;;
7013;SDS011;3547;50.774;12.918;2023-08-20T20:33:49;6.78;;;3.38;;
7013;SDS011;3547;50.774;12.918;2023-08-20T20:36:15;4.43;;;3.10;;
7013;SDS011;3547;50.774;12.918;2023-08-20T20:42:03;5.38;;;3.75;;
7013;SDS011;3547;50.774;12.918;2023-08-20T20:44:30;4.03;;;3.20;;
7013;SDS011;3547;50.774;12.918;2023-08-20T20:46:56;4.10;;;3.45;;
7013;SDS011;3547;50.774;12.918;2023-08-20T20:49:22;4.07;;;3.15;;
7013;SDS011;3547;50.774;12.918;2023-08-20T20:51:50;8.98;;;3.50;;
7013;SDS011;3547;50.774;12.918;2023-08-20T20:54:16;4.53;;;3.08;;
7013;SDS011;3547;50.774;12.918;2023-08-20T20:56:43;6.30;;;3.75;;
7013;SDS011;3547;50.774;12.918;2023-08-20T20:59:09;5.15;;;3.45;;
7013;SDS011;3547;50.774;12.918;2023-08-20T21:01:35;5.85;;;3.35;;
7013;SDS011;3547;50.774;12.918;2023-08-20T21:04:01;8.43;;;3.63;;
7013;SDS011;3547;50.774;12.918;2023-08-20T21:06:27;3.45;;;3.15;;
7013;SDS011;3547;50.774;12.918;2023-08-20T21:08:56;4.13;;;3.33;;
7013;SDS011;3547;50.774;12.918;2023-08-20T21:11:22;4.05;;;3.58;;
7013;SDS011;3547;50.774;12.918;2023-08-20T21:13:51;4.60;;;3.65;;
7013;SDS011;3547;50.774;12.918;2023-08-20T21:16:17;5.32;;;3.45;;
7013;SDS011;3547;50.774;12.918;2023-08-20T21:18:45;4.40;;;3.65;;
7013;SDS011;3547;50.774;12.918;2023-08-20T21:21:11;5.13;;;3.40;;
7013;SDS011;3547;50.774;12.918;2023-08-20T21:23:41;4.70;;;3.63;;
7013;SDS011;3547;50.774;12.918;2023-08-20T21:26:11;4.22;;;3.53;;
7013;SDS011;3547;50.774;12.918;2023-08-20T21:28:38;4.60;;;3.53;;
7013;SDS011;3547;50.774;12.918;2023-08-20T21:31:04;4.97;;;3.90;;
7013;SDS011;3547;50.774;12.918;2023-08-20T21:33:33;6.70;;;3.45;;
7013;SDS011;3547;50.774;12.918;2023-08-20T21:36:00;4.47;;;3.72;;
7013;SDS011;3547;50.774;12.918;2023-08-20T21:38:26;4.15;;;3.72;;
7013;SDS011;3547;50.774;12.918;2023-08-20T21:40:52;4.50;;;3.40;;
7013;SDS011;3547;50.774;12.918;2023-08-20T21:43:18;5.03;;;3.28;;
7013;SDS011;3547;50.774;12.918;2023-08-20T21:45:45;4.72;;;3.70;;
7013;SDS011;3547;50.774;12.918;2023-08-20T21:48:12;3.90;;;3.50;;
7013;SDS011;3547;50.774;12.918;2023-08-20T21:50:41;3.55;;;3.25;;
7013;SDS011;3547;50.774;12.918;2023-08-20T21:53:07;5.53;;;4.20;;
7013;SDS011;3547;50.774;12.918;2023-08-20T21:55:33;3.85;;;3.50;;
7013;SDS011;3547;50.774;12.918;2023-08-20T21:58:00;5.40;;;3.63;;
7013;SDS011;3547;50.774;12.918;2023-08-20T22:00:26;6.30;;;3.85;;
7013;SDS011;3547;50.774;12.918;2023-08-20T22:02:52;5.22;;;4.00;;
7013;SDS011;3547;50.774;12.918;2023-08-20T22:05:19;6.65;;;3.55;;
7013;SDS011;3547;50.774;12.918;2023-08-20T22:07:47;4.55;;;3.58;;
7013;SDS011;3547;50.774;12.918;2023-08-20T22:10:15;4.95;;;3.85;;
7013;SDS011;3547;50.774;12.918;2023-08-20T22:12:45;3.45;;;3.15;;
7013;SDS011;3547;50.774;12.918;2023-08-20T22:15:12;5.20;;;3.38;;
7013;SDS011;3547;50.774;12.918;2023-08-20T22:17:41;4.22;;;3.38;;
7013;SDS011;3547;50.774;12.918;2023-08-20T22:20:08;4.00;;;3.63;;
7013;SDS011;3547;50.774;12.918;2023-08-20T22:22:36;5.22;;;3.40;;
7013;SDS011;3547;50.774;12.918;2023-08-20T22:25:03;5.50;;;3.53;;
7013;SDS011;3547;50.774;12.918;2023-08-20T22:27:30;4.00;;;3.40;;
7013;SDS011;3547;50.774;12.918;2023-08-20T22:29:57;4.55;;;3.47;;
7013;SDS011;3547;50.774;12.918;2023-08-20T22:32:23;5.28;;;3.47;;
7013;SDS011;3547;50.774;12.918;2023-08-20T22:34:49;4.20;;;3.60;;
7013;SDS011;3547;50.774;12.918;2023-08-20T22:37:16;3.63;;;3.08;;
7013;SDS011;3547;50.774;12.918;2023-08-20T22:39:42;5.07;;;3.72;;
7013;SDS011;3547;50.774;12.918;2023-08-20T22:42:09;4.60;;;3.90;;
7013;SDS011;3547;50.774;12.918;2023-08-20T22:44:35;4.00;;;3.55;;
7013;SDS011;3547;50.774;12.918;2023-08-20T22:47:01;3.80;;;3.50;;
7013;SDS011;3547;50.774;12.918;2023-08-20T22:49:28;6.35;;;3.92;;
7013;SDS011;3547;50.774;12.918;2023-08-20T22:51:57;4.22;;;3.83;;
7013;SDS011;3547;50.774;12.918;2023-08-20T22:54:23;5.55;;;3.45;;
7013;SDS011;3547;50.774;12.918;2023-08-20T22:56:49;5.35;;;4.38;;
7013;SDS011;3547;50.774;12.918;2023-08-20T22:59:15;7.82;;;3.75;;
7013;SDS011;3547;50.774;12.918;2023-08-20T23:01:43;6.80;;;3.78;;
7013;SDS011;3547;50.774;12.918;2023-08-20T23:04:12;5.57;;;3.60;;
7013;SDS011;3547;50.774;12.918;2023-08-20T23:06:39;5.95;;;4.07;;
7013;SDS011;3547;50.774;12.918;2023-08-20T23:09:06;4.75;;;4.25;;
7013;SDS011;3547;50.774;12.918;2023-08-20T23:11:33;5.20;;;3.95;;
7013;SDS011;3547;50.774;12.918;2023-08-20T23:13:59;4.43;;;3.53;;
7013;SDS011;3547;50.774;12.918;2023-08-20T23:16:25;4.35;;;3.88;;
7013;SDS011;3547;50.774;12.918;2023-08-20T23:18:51;4.50;;;4.10;;
7013;SDS011;3547;50.774;12.918;2023-08-20T23:21:18;3.90;;;3.50;;
7013;SDS011;3547;50.774;12.918;2023-08-20T23:23:44;4.85;;;3.25;;
7013;SDS011;3547;50.774;12.918;2023-08-20T23:26:10;7.03;;;3.55;;
7013;SDS011;3547;50.774;12.918;2023-08-20T23:28:36;3.92;;;3.45;;
7013;SDS011;3547;50.774;12.918;2023-08-20T23:31:05;4.90;;;3.78;;
7013;SDS011;3547;50.774;12.918;2023-08-20T23:33:35;7.45;;;3.85;;
7013;SDS011;3547;50.774;12.918;2023-08-20T23:36:04;4.72;;;4.18;;
7013;SDS011;3547;50.774;12.918;2023-08-20T23:38:30;4.38;;;3.78;;
7013;SDS011;3547;50.774;12.918;2023-08-20T23:41:05;3.88;;;3.53;;
7013;SDS011;3547;50.774;12.918;2023-08-20T23:43:31;5.80;;;4.03;;
7013;SDS011;3547;50.774;12.918;2023-08-20T23:45:57;4.32;;;3.88;;
7013;SDS011;3547;50.774;12.918;2023-08-20T23:48:24;4.55;;;3.85;;
7013;SDS011;3547;50.774;12.918;2023-08-20T23:50:50;5.07;;;3.60;;
7013;SDS011;3547;50.774;12.918;2023-08-20T23:53:16;6.70;;;3.97;;
7013;SDS011;3547;50.774;12.918;2023-08-20T23:55:43;7.07;;;3.72;;
7013;SDS011;3547;50.774;12.918;2023-08-20T23:58:09;3.90;;;3.50;;
